Aviation Digital Data Service (ADDS)

Output produced by METARs form (1250 UTC 21 February 2018)
found at http://www.aviationweather.gov/adds/metars/
 
EHKD 211225Z AUTO 06007KT 030V090 9000 HZ NSC 03/M01 Q1027 BLU 07006KT 8000 NSC
EHGG 211225Z AUTO 05008KT 9999 NSC 04/M03 Q1027 NOSIG
TAF EHGG 201057Z 2012/2118 07005KT 8000 NSC 
     PROB30 
     TEMPO 2022/2109 2000 MIFG BR
       
EHEH 211225Z AUTO 03010KT 350V060 9999 NSC 05/M03 Q1025 BLU 04008KT CAVOK
TAF EHEH 201118Z 2012/2118 08005KT CAVOK 
     PROB40 2102/2108 4000 BR
       
EHBK 211225Z AUTO 05012KT 020V080 9999 NCD 04/M03 Q1024 NOSIG
TAF EHBK 201057Z 2012/2118 06006KT 8000 NSC 
     PROB30 2100/2108 4000 BR
       
EHRD 211225Z AUTO 04007KT 010V070 8000 NCD 05/M01 Q1026 NOSIG
TAF EHRD 201029Z 2012/2118 09007KT CAVOK 
     BECMG 2014/2016 04005KT 
     PROB30 
     TEMPO 2021/2108 4000 BR NSC
       
EHAM 211225Z 07008KT 040V100 8000 NSC 05/M01 Q1026 NOSIG
TAF EHAM 201029Z 2012/2118 09007KT CAVOK 
     BECMG 2014/2016 04005KT 
     PROB30 
     TEMPO 2021/2108 4000 BR NSC
       
EHWO 211243Z AUTO 05009KT 330V090 9000 HZ NCD 04/M03 Q1026 BLU 05010KT 9000 NSC